sensor_id;sensor_type;location;lat;lon;timestamp;pressure;altitude;pressure_sealevel;temperature;humidity
41515;BME280;27247;48.020;16.720;2022-10-16T03:26:20;100218.09;;;11.26;100.00
41515;BME280;27247;48.020;16.720;2022-10-16T03:30:31;100222.63;;;11.26;100.00
41515;BME280;27247;48.020;16.720;2022-10-16T03:34:41;100213.09;;;11.23;100.00
41515;BME280;27247;48.020;16.720;2022-10-16T03:38:52;100210.44;;;11.23;100.00
41515;BME280;27247;48.020;16.720;2022-10-16T03:43:02;100220.28;;;11.23;100.00
41515;BME280;27247;48.020;16.720;2022-10-16T03:47:12;100223.47;;;11.26;100.00
41515;BME280;27247;48.020;16.720;2022-10-16T03:51:23;100213.59;;;11.18;100.00
41515;BME280;27247;48.020;16.720;2022-10-16T03:55:34;100227.66;;;11.12;100.00
41515;BME280;27247;48.020;16.720;2022-10-16T03:59:44;100242.72;;;11.13;100.00
41515;BME280;27247;48.020;16.720;2022-10-16T04:03:55;100243.53;;;11.14;100.00
41515;BME280;27247;48.020;16.720;2022-10-16T04:08:05;100248.72;;;11.15;100.00
41515;BME280;27247;48.020;16.720;2022-10-16T04:12:16;100255.41;;;11.19;100.00
41515;BME280;27247;48.020;16.720;2022-10-16T04:16:26;100256.91;;;11.22;100.00
41515;BME280;27247;48.020;16.720;2022-10-16T04:20:37;100257.91;;;11.21;100.00
41515;BME280;27247;48.020;16.720;2022-10-16T04:24:47;100247.22;;;11.21;100.00
41515;BME280;27247;48.020;16.720;2022-10-16T04:28:57;100254.56;;;11.19;100.00
41515;BME280;27247;48.020;16.720;2022-10-16T04:33:09;100251.56;;;11.14;100.00
41515;BME280;27247;48.020;16.720;2022-10-16T04:37:23;100241.84;;;11.21;100.00
41515;BME280;27247;48.020;16.720;2022-10-16T04:41:34;100236.00;;;11.17;100.00
41515;BME280;27247;48.020;16.720;2022-10-16T04:45:44;100230.66;;;11.17;100.00
41515;BME280;27247;48.020;16.720;2022-10-16T04:49:55;100236.03;;;11.01;100.00
41515;BME280;27247;48.020;16.720;2022-10-16T04:54:05;100242.06;;;10.95;100.00
41515;BME280;27247;48.020;16.720;2022-10-16T04:58:15;100255.44;;;10.87;100.00
41515;BME280;27247;48.020;16.720;2022-10-16T05:02:26;100260.28;;;10.83;100.00
41515;BME280;27247;48.020;16.720;2022-10-16T05:06:37;100259.28;;;10.84;100.00
41515;BME280;27247;48.020;16.720;2022-10-16T05:10:48;100273.97;;;10.80;100.00
41515;BME280;27247;48.020;16.720;2022-10-16T05:14:58;100279.16;;;10.82;100.00
41515;BME280;27247;48.020;16.720;2022-10-16T05:19:09;100274.81;;;10.81;100.00
41515;BME280;27247;48.020;16.720;2022-10-16T05:23:19;100279.66;;;10.77;100.00
41515;BME280;27247;48.020;16.720;2022-10-16T05:27:30;100288.34;;;10.87;100.00
41515;BME280;27247;48.020;16.720;2022-10-16T05:31:40;100290.34;;;10.85;100.00
41515;BME280;27247;48.020;16.720;2022-10-16T05:35:51;100299.38;;;10.84;100.00
41515;BME280;27247;48.020;16.720;2022-10-16T05:40:02;100316.59;;;10.82;100.00
41515;BME280;27247;48.020;16.720;2022-10-16T05:44:15;100313.75;;;10.83;100.00
41515;BME280;27247;48.020;16.720;2022-10-16T05:48:25;100302.38;;;10.81;100.00
41515;BME280;27247;48.020;16.720;2022-10-16T05:52:35;100306.06;;;10.80;100.00
41515;BME280;27247;48.020;16.720;2022-10-16T05:56:46;100319.09;;;10.75;100.00
41515;BME280;27247;48.020;16.720;2022-10-16T06:01:02;100330.09;;;10.72;100.00
41515;BME280;27247;48.020;16.720;2022-10-16T06:05:13;100324.91;;;10.71;100.00
41515;BME280;27247;48.020;16.720;2022-10-16T06:09:23;100322.25;;;10.71;100.00
41515;BME280;27247;48.020;16.720;2022-10-16T06:13:34;100336.78;;;10.76;100.00
41515;BME280;27247;48.020;16.720;2022-10-16T06:17:44;100347.97;;;10.72;100.00
41515;BME280;27247;48.020;16.720;2022-10-16T06:21:55;100350.16;;;10.76;100.00
41515;BME280;27247;48.020;16.720;2022-10-16T06:26:10;100359.34;;;10.82;100.00
41515;BME280;27247;48.020;16.720;2022-10-16T06:30:20;100369.88;;;10.83;100.00
41515;BME280;27247;48.020;16.720;2022-10-16T06:34:30;100384.59;;;10.87;100.00
41515;BME280;27247;48.020;16.720;2022-10-16T06:38:41;100390.81;;;10.96;100.00
41515;BME280;27247;48.020;16.720;2022-10-16T06:42:54;100399.19;;;11.09;100.00
41515;BME280;27247;48.020;16.720;2022-10-16T06:47:05;100404.22;;;11.20;100.00
41515;BME280;27247;48.020;16.720;2022-10-16T06:51:23;100396.19;;;11.37;100.00
41515;BME280;27247;48.020;16.720;2022-10-16T06:55:34;100408.94;;;11.51;100.00
41515;BME280;27247;48.020;16.720;2022-10-16T06:59:44;100409.94;;;11.58;100.00
41515;BME280;27247;48.020;16.720;2022-10-16T07:03:54;100406.94;;;11.77;100.00
41515;BME280;27247;48.020;16.720;2022-10-16T07:08:05;100410.09;;;11.97;100.00
41515;BME280;27247;48.020;16.720;2022-10-16T07:12:15;100408.34;;;12.21;100.00
41515;BME280;27247;48.020;16.720;2022-10-16T07:16:27;100404.13;;;12.34;100.00
41515;BME280;27247;48.020;16.720;2022-10-16T07:20:38;100408.91;;;12.55;100.00
41515;BME280;27247;48.020;16.720;2022-10-16T07:24:49;100413.50;;;12.77;100.00
41515;BME280;27247;48.020;16.720;2022-10-16T07:29:00;100427.19;;;12.91;100.00
41515;BME280;27247;48.020;16.720;2022-10-16T07:33:11;100431.31;;;13.01;100.00
41515;BME280;27247;48.020;16.720;2022-10-16T07:37:21;100442.03;;;13.01;100.00
41515;BME280;27247;48.020;16.720;2022-10-16T07:41:32;100448.19;;;13.18;100.00
41515;BME280;27247;48.020;16.720;2022-10-16T07:45:47;100442.88;;;13.02;100.00
41515;BME280;27247;48.020;16.720;2022-10-16T07:49:58;100437.44;;;12.87;100.00
41515;BME280;27247;48.020;16.720;2022-10-16T07:54:09;100428.97;;;12.67;100.00
41515;BME280;27247;48.020;16.720;2022-10-16T07:58:20;100428.69;;;12.54;100.00
41515;BME280;27247;48.020;16.720;2022-10-16T08:02:31;100428.19;;;12.90;100.00
41515;BME280;27247;48.020;16.720;2022-10-16T08:06:41;100432.03;;;13.26;100.00
41515;BME280;27247;48.020;16.720;2022-10-16T08:10:52;100430.59;;;13.38;100.00
41515;BME280;27247;48.020;16.720;2022-10-16T08:15:02;100430.19;;;13.72;100.00
41515;BME280;27247;48.020;16.720;2022-10-16T08:19:13;100440.63;;;14.05;100.00
41515;BME280;27247;48.020;16.720;2022-10-16T08:23:26;100448.59;;;14.13;100.00
41515;BME280;27247;48.020;16.720;2022-10-16T08:27:36;100463.03;;;13.97;100.00
41515;BME280;27247;48.020;16.720;2022-10-16T08:31:47;100466.41;;;14.14;100.00
41515;BME280;27247;48.020;16.720;2022-10-16T08:35:57;100467.16;;;14.37;100.00
41515;BME280;27247;48.020;16.720;2022-10-16T08:40:17;100478.72;;;14.09;100.00
41515;BME280;27247;48.020;16.720;2022-10-16T08:48:59;100488.31;;;13.88;100.00
41515;BME280;27247;48.020;16.720;2022-10-16T08:53:17;100491.56;;;13.98;100.00
41515;BME280;27247;48.020;16.720;2022-10-16T08:57:29;100495.50;;;14.11;100.00
41515;BME280;27247;48.020;16.720;2022-10-16T09:01:44;100490.94;;;14.11;100.00
41515;BME280;27247;48.020;16.720;2022-10-16T09:10:50;100495.75;;;14.53;100.00
41515;BME280;27247;48.020;16.720;2022-10-16T09:15:31;100493.94;;;14.68;100.00
41515;BME280;27247;48.020;16.720;2022-10-16T09:19:56;100479.25;;;14.86;100.00
41515;BME280;27247;48.020;16.720;2022-10-16T09:24:19;100486.75;;;15.05;100.00
41515;BME280;27247;48.020;16.720;2022-10-16T09:28:30;100495.34;;;15.15;100.00
41515;BME280;27247;48.020;16.720;2022-10-16T09:32:42;100496.75;;;15.47;100.00
41515;BME280;27247;48.020;16.720;2022-10-16T09:36:53;100487.97;;;15.75;100.00
41515;BME280;27247;48.020;16.720;2022-10-16T09:41:20;100485.44;;;15.94;100.00
41515;BME280;27247;48.020;16.720;2022-10-16T09:45:31;100500.16;;;16.20;100.00
41515;BME280;27247;48.020;16.720;2022-10-16T09:50:01;100495.59;;;16.48;100.00
41515;BME280;27247;48.020;16.720;2022-10-16T09:54:15;100497.06;;;16.79;100.00
41515;BME280;27247;48.020;16.720;2022-10-16T09:58:25;100498.47;;;17.09;100.00
41515;BME280;27247;48.020;16.720;2022-10-16T10:02:37;100490.66;;;17.41;100.00
41515;BME280;27247;48.020;16.720;2022-10-16T10:06:53;100501.00;;;17.92;100.00
41515;BME280;27247;48.020;16.720;2022-10-16T10:11:04;100493.09;;;17.97;99.47
41515;BME280;27247;48.020;16.720;2022-10-16T10:15:15;100500.53;;;17.68;100.00
41515;BME280;27247;48.020;16.720;2022-10-16T10:19:41;100497.88;;;18.28;99.12
41515;BME280;27247;48.020;16.720;2022-10-16T10:23:55;100493.28;;;18.22;96.71
41515;BME280;27247;48.020;16.720;2022-10-16T10:36:45;100478.09;;;18.14;96.20
41515;BME280;27247;48.020;16.720;2022-10-16T10:45:43;100475.81;;;18.11;94.33
41515;BME280;27247;48.020;16.720;2022-10-16T10:54:41;100490.78;;;18.27;94.99
41515;BME280;27247;48.020;16.720;2022-10-16T11:08:15;100487.13;;;18.99;88.97
41515;BME280;27247;48.020;16.720;2022-10-16T11:12:44;100485.66;;;19.41;88.16
41515;BME280;27247;48.020;16.720;2022-10-16T11:17:13;100483.22;;;19.71;84.66
41515;BME280;27247;48.020;16.720;2022-10-16T11:21:26;100472.69;;;20.13;85.26
41515;BME280;27247;48.020;16.720;2022-10-16T11:25:38;100471.72;;;19.75;83.95
41515;BME280;27247;48.020;16.720;2022-10-16T11:29:58;100471.63;;;20.14;84.44
41515;BME280;27247;48.020;16.720;2022-10-16T11:34:17;100465.53;;;19.62;83.86
41515;BME280;27247;48.020;16.720;2022-10-16T11:38:43;100461.78;;;19.94;85.06
41515;BME280;27247;48.020;16.720;2022-10-16T11:43:06;100457.19;;;20.38;84.34
41515;BME280;27247;48.020;16.720;2022-10-16T11:47:30;100457.09;;;20.51;83.15
41515;BME280;27247;48.020;16.720;2022-10-16T11:51:50;100453.00;;;20.60;82.51
41515;BME280;27247;48.020;16.720;2022-10-16T11:56:05;100437.03;;;20.89;80.56
41515;BME280;27247;48.020;16.720;2022-10-16T12:00:25;100437.19;;;20.94;80.96
41515;BME280;27247;48.020;16.720;2022-10-16T12:09:30;100442.03;;;21.52;77.70
41515;BME280;27247;48.020;16.720;2022-10-16T12:13:42;100443.06;;;21.39;78.19
41515;BME280;27247;48.020;16.720;2022-10-16T12:17:53;100442.66;;;21.65;76.69
41515;BME280;27247;48.020;16.720;2022-10-16T12:22:15;100438.88;;;21.66;77.22
41515;BME280;27247;48.020;16.720;2022-10-16T12:26:31;100446.38;;;21.83;76.46
41515;BME280;27247;48.020;16.720;2022-10-16T12:30:43;100451.50;;;21.91;74.97
41515;BME280;27247;48.020;16.720;2022-10-16T12:35:03;100442.91;;;21.04;76.82
41515;BME280;27247;48.020;16.720;2022-10-16T12:39:22;100439.50;;;21.80;75.60
41515;BME280;27247;48.020;16.720;2022-10-16T12:43:44;100446.34;;;22.13;73.89
41515;BME280;27247;48.020;16.720;2022-10-16T12:47:55;100451.75;;;21.59;76.62
41515;BME280;27247;48.020;16.720;2022-10-16T12:52:25;100447.50;;;21.63;73.77
41515;BME280;27247;48.020;16.720;2022-10-16T13:01:10;100448.44;;;22.46;71.71
41515;BME280;27247;48.020;16.720;2022-10-16T13:09:58;100442.19;;;22.10;71.53
41515;BME280;27247;48.020;16.720;2022-10-16T13:14:47;100438.28;;;22.29;71.86
41515;BME280;27247;48.020;16.720;2022-10-16T13:23:58;100446.28;;;21.48;73.28
41515;BME280;27247;48.020;16.720;2022-10-16T13:28:12;100449.84;;;21.90;72.73
41515;BME280;27247;48.020;16.720;2022-10-16T13:32:23;100449.63;;;22.03;70.94
41515;BME280;27247;48.020;16.720;2022-10-16T13:36:45;100458.72;;;21.97;70.52
41515;BME280;27247;48.020;16.720;2022-10-16T13:41:13;100463.09;;;21.86;69.68
41515;BME280;27247;48.020;16.720;2022-10-16T13:45:25;100461.59;;;22.37;71.17
41515;BME280;27247;48.020;16.720;2022-10-16T13:49:35;100455.63;;;22.75;69.53
41515;BME280;27247;48.020;16.720;2022-10-16T13:53:45;100465.94;;;22.85;69.12
41515;BME280;27247;48.020;16.720;2022-10-16T13:58:08;100457.47;;;23.10;68.39
41515;BME280;27247;48.020;16.720;2022-10-16T14:02:25;100460.91;;;23.17;68.29
41515;BME280;27247;48.020;16.720;2022-10-16T14:06:40;100458.84;;;23.24;67.65
41515;BME280;27247;48.020;16.720;2022-10-16T14:10:54;100458.91;;;23.12;68.00
41515;BME280;27247;48.020;16.720;2022-10-16T14:15:15;100471.50;;;23.30;68.16
41515;BME280;27247;48.020;16.720;2022-10-16T14:19:27;100469.97;;;22.71;68.16
41515;BME280;27247;48.020;16.720;2022-10-16T14:23:40;100468.41;;;22.75;69.29
41515;BME280;27247;48.020;16.720;2022-10-16T14:28:15;100468.56;;;22.80;68.77
41515;BME280;27247;48.020;16.720;2022-10-16T14:32:26;100468.34;;;22.35;68.79
41515;BME280;27247;48.020;16.720;2022-10-16T14:36:40;100465.16;;;22.49;70.02
41515;BME280;27247;48.020;16.720;2022-10-16T14:40:51;100470.47;;;22.56;69.68
41515;BME280;27247;48.020;16.720;2022-10-16T14:45:08;100476.75;;;22.33;70.11
41515;BME280;27247;48.020;16.720;2022-10-16T14:49:20;100476.41;;;22.18;70.87
41515;BME280;27247;48.020;16.720;2022-10-16T14:53:32;100473.97;;;21.98;72.34
41515;BME280;27247;48.020;16.720;2022-10-16T14:57:43;100471.13;;;21.93;71.79
41515;BME280;27247;48.020;16.720;2022-10-16T15:01:54;100464.97;;;21.86;72.83
41515;BME280;27247;48.020;16.720;2022-10-16T15:06:10;100471.44;;;21.73;72.37
41515;BME280;27247;48.020;16.720;2022-10-16T15:10:23;100476.56;;;21.51;72.99
41515;BME280;27247;48.020;16.720;2022-10-16T15:14:34;100486.13;;;21.42;73.70
41515;BME280;27247;48.020;16.720;2022-10-16T15:18:44;100476.34;;;21.23;73.17
41515;BME280;27247;48.020;16.720;2022-10-16T15:22:55;100477.91;;;21.12;73.81
